Time;durP1;ratioP1;P1;durP2;ratioP2;P2;SDS_P1;SDS_P2;PMS_P1;PMS_P2;Temp;Humidity;BMP_temperature;BMP_pressure;BME280_temperature;BME280_humidity;BME280_pressure;Samples;Min_cycle;Max_cycle;Signal;HPM_P1;HPM_P2
2023/08/10 00:01:55;;;;;;;6.30;1.30;;;;;;;12.74;100.00;101378.53;5073104;28;20456;-68
2023/08/10 00:04:21;;;;;;;5.53;1.33;;;;;;;12.70;100.00;101388.38;5073236;28;20437;-68
2023/08/10 00:06:48;;;;;;;6.37;1.50;;;;;;;12.70;100.00;101389.19;5074913;28;20457;-68
2023/08/10 00:09:15;;;;;;;5.83;1.20;;;;;;;12.71;100.00;101387.28;5076888;28;20441;-69
2023/08/10 00:11:42;;;;;;;6.80;1.40;;;;;;;12.75;100.00;101386.41;5076399;28;20502;-68
2023/08/10 00:14:10;;;;;;;5.23;1.40;;;;;;;12.72;100.00;101395.16;5076595;28;20587;-68
2023/08/10 00:16:36;;;;;;;5.77;1.27;;;;;;;12.72;100.00;101392.44;5076611;28;20460;-68
2023/08/10 00:19:04;;;;;;;5.60;1.10;;;;;;;12.74;100.00;101394.84;5076919;28;20441;-68
2023/08/10 00:21:31;;;;;;;6.27;1.73;;;;;;;12.76;100.00;101398.09;5076541;28;20483;-68
2023/08/10 00:23:58;;;;;;;5.63;1.33;;;;;;;12.71;100.00;101396.25;5076607;28;20532;-68
2023/08/10 00:26:24;;;;;;;6.83;1.77;;;;;;;12.74;100.00;101394.84;5076571;28;20540;-68
2023/08/10 00:28:51;;;;;;;5.33;1.30;;;;;;;12.75;100.00;101397.28;5076469;28;20529;-68
2023/08/10 00:31:19;;;;;;;9.10;1.50;;;;;;;12.75;100.00;101396.44;5076412;28;20537;-68
2023/08/10 00:33:46;;;;;;;7.13;1.10;;;;;;;12.63;100.00;101395.00;5076338;28;20481;-68
2023/08/10 00:36:13;;;;;;;6.50;1.93;;;;;;;12.70;100.00;101399.25;5076585;28;20500;-68
2023/08/10 00:38:41;;;;;;;5.50;1.23;;;;;;;12.69;100.00;101398.44;5076426;28;20465;-68
2023/08/10 00:41:08;;;;;;;5.13;1.33;;;;;;;12.70;100.00;101393.81;5076233;28;20480;-68
2023/08/10 00:43:35;;;;;;;5.37;1.40;;;;;;;12.68;100.00;101398.75;5076731;28;20440;-68
2023/08/10 00:46:02;;;;;;;5.00;1.30;;;;;;;12.69;100.00;101393.00;5075813;28;20977;-68
2023/08/10 00:48:31;;;;;;;5.40;1.20;;;;;;;12.72;100.00;101397.88;5076131;28;20438;-68
2023/08/10 00:50:58;;;;;;;5.80;1.77;;;;;;;12.72;100.00;101397.88;5075763;28;20943;-68
2023/08/10 00:53:26;;;;;;;5.40;1.30;;;;;;;12.70;100.00;101400.06;5076401;28;20516;-68
2023/08/10 00:55:53;;;;;;;5.03;1.20;;;;;;;12.69;100.00;101406.59;5075617;28;20539;-68
2023/08/10 00:58:21;;;;;;;6.17;1.77;;;;;;;12.66;100.00;101409.09;5075984;28;20842;-68
2023/08/10 01:00:48;;;;;;;6.37;1.30;;;;;;;12.56;100.00;101405.41;5075623;28;20465;-68
2023/08/10 01:03:16;;;;;;;7.57;1.60;;;;;;;12.46;100.00;101416.44;5075827;28;20434;-68
2023/08/10 01:05:53;;;;;;;7.80;1.53;;;;;;;12.41;100.00;101419.25;5075811;28;20457;-68
2023/08/10 01:08:27;;;;;;;8.60;1.50;;;;;;;12.34;100.00;101416.88;5075793;28;20418;-68
2023/08/10 01:11:03;;;;;;;21.10;2.00;;;;;;;12.37;100.00;101408.16;5075721;28;20784;-68
2023/08/10 01:13:39;;;;;;;7.63;1.60;;;;;;;12.42;100.00;101412.69;5075305;28;20972;-68
2023/08/10 01:16:10;;;;;;;5.27;1.20;;;;;;;12.40;100.00;101425.78;5075618;28;20464;-68
2023/08/10 01:18:39;;;;;;;5.30;1.10;;;;;;;12.47;100.00;101411.81;5074992;28;20422;-68
2023/08/10 01:21:23;;;;;;;6.10;1.70;;;;;;;12.54;100.00;101423.13;5075669;28;20429;-68
2023/08/10 01:23:55;;;;;;;5.50;1.40;;;;;;;12.57;100.00;101422.53;5075480;28;20424;-68
2023/08/10 01:26:26;;;;;;;5.17;1.17;;;;;;;12.59;100.00;101414.91;5075701;28;20540;-69
2023/08/10 01:28:54;;;;;;;7.00;1.80;;;;;;;12.61;100.00;101418.13;5075455;28;20435;-68
2023/08/10 01:31:21;;;;;;;6.30;1.60;;;;;;;12.60;100.00;101416.53;5075186;28;20524;-68
2023/08/10 01:33:48;;;;;;;5.20;1.20;;;;;;;12.56;100.00;101410.84;5075555;28;20508;-68
2023/08/10 01:36:14;;;;;;;5.50;1.30;;;;;;;12.59;100.00;101410.28;5075113;28;20473;-68
2023/08/10 01:38:41;;;;;;;6.13;1.70;;;;;;;12.55;100.00;101413.88;5075273;28;20438;-68
2023/08/10 01:41:07;;;;;;;5.77;1.47;;;;;;;12.50;100.00;101405.81;5074908;28;20548;-68
2023/08/10 01:43:35;;;;;;;5.87;1.80;;;;;;;12.48;100.00;101408.78;5075224;28;20433;-68
2023/08/10 01:46:02;;;;;;;4.97;1.20;;;;;;;12.49;100.00;101415.06;5074900;28;20457;-68
2023/08/10 01:48:33;;;;;;;4.97;1.03;;;;;;;12.52;100.00;101419.91;5075093;28;20525;-68
2023/08/10 01:51:03;;;;;;;5.37;1.23;;;;;;;12.43;100.00;101421.66;5074836;28;20437;-68
2023/08/10 01:53:33;;;;;;;5.80;1.70;;;;;;;12.43;100.00;101427.88;5074781;28;20585;-68
2023/08/10 01:56:00;;;;;;;6.13;1.47;;;;;;;12.47;100.00;101419.97;5074866;28;20540;-68
2023/08/10 01:58:27;;;;;;;6.73;1.20;;;;;;;12.43;100.00;101427.09;5074890;28;20481;-68
2023/08/10 02:00:55;;;;;;;6.53;2.10;;;;;;;12.40;100.00;101420.34;5074726;28;20546;-68
2023/08/10 02:03:22;;;;;;;4.90;1.03;;;;;;;12.41;100.00;101426.59;5075051;28;20442;-68
2023/08/10 02:05:49;;;;;;;8.17;1.93;;;;;;;12.45;100.00;101419.47;5074415;28;20459;-68
2023/08/10 02:08:16;;;;;;;15.17;3.30;;;;;;;12.49;100.00;101417.78;5074768;28;20430;-68
2023/08/10 02:13:15;;;;;;;5.33;1.27;;;;;;;12.49;100.00;101415.88;5052645;28;20520;-68
2023/08/10 02:15:42;;;;;;;5.47;1.30;;;;;;;12.40;100.00;101416.81;5054180;28;20569;-70
2023/08/10 02:18:12;;;;;;;5.43;1.17;;;;;;;12.45;100.00;101422.19;5054327;28;20812;-70
2023/08/10 02:20:39;;;;;;;5.70;1.30;;;;;;;12.45;100.00;101414.03;5054312;28;20430;-70
2023/08/10 02:23:06;;;;;;;5.47;1.33;;;;;;;12.33;100.00;101417.16;5053903;28;20442;-70
2023/08/10 02:25:33;;;;;;;5.13;1.23;;;;;;;12.32;100.00;101421.00;5054160;28;20809;-70
2023/08/10 02:28:00;;;;;;;7.10;1.73;;;;;;;12.33;100.00;101426.13;5054004;28;20492;-70
2023/08/10 02:30:26;;;;;;;5.10;1.10;;;;;;;12.27;100.00;101430.03;5053053;28;20803;-68
2023/08/10 02:32:53;;;;;;;5.63;1.47;;;;;;;12.29;100.00;101424.28;5054085;28;20466;-70
2023/08/10 02:35:21;;;;;;;6.13;1.30;;;;;;;12.23;100.00;101423.56;5053889;28;20565;-70
2023/08/10 02:37:48;;;;;;;5.20;1.03;;;;;;;12.19;100.00;101422.50;5053976;28;20446;-71
2023/08/10 02:40:16;;;;;;;5.10;1.10;;;;;;;12.13;100.00;101423.69;5053923;28;20442;-71
2023/08/10 02:42:43;;;;;;;5.60;1.30;;;;;;;12.06;100.00;101428.66;5053610;28;20503;-71
2023/08/10 02:45:12;;;;;;;6.20;1.33;;;;;;;11.92;100.00;101423.13;5053682;28;21016;-70
2023/08/10 02:47:39;;;;;;;5.40;1.07;;;;;;;11.90;100.00;101417.16;5054058;28;20434;-70
2023/08/10 02:50:06;;;;;;;6.63;1.20;;;;;;;11.89;100.00;101429.13;5054022;28;20434;-69
2023/08/10 02:52:35;;;;;;;6.90;1.90;;;;;;;11.79;100.00;101430.00;5053664;28;20452;-70
2023/08/10 02:55:03;;;;;;;6.33;1.00;;;;;;;11.81;100.00;101427.00;5053831;28;20576;-70
2023/08/10 02:57:30;;;;;;;5.53;1.23;;;;;;;11.80;100.00;101436.25;5053655;28;20438;-70
2023/08/10 02:59:56;;;;;;;5.23;1.03;;;;;;;11.84;100.00;101437.31;5053339;28;20789;-70
2023/08/10 03:02:23;;;;;;;6.17;1.50;;;;;;;11.81;100.00;101437.84;5053614;28;20868;-70
2023/08/10 03:04:50;;;;;;;6.90;1.60;;;;;;;11.86;100.00;101435.94;5053550;28;20529;-70
2023/08/10 03:07:17;;;;;;;5.13;1.27;;;;;;;11.91;100.00;101435.06;5053226;28;20846;-70
2023/08/10 03:09:45;;;;;;;9.47;2.13;;;;;;;11.89;100.00;101442.69;5053828;28;20443;-70
2023/08/10 03:12:12;;;;;;;5.80;1.60;;;;;;;11.88;100.00;101437.56;5052998;28;20508;-70
2023/08/10 03:14:38;;;;;;;7.30;2.23;;;;;;;11.95;100.00;101444.22;5053558;28;20489;-70
2023/08/10 03:17:05;;;;;;;6.17;1.70;;;;;;;11.91;100.00;101440.50;5053548;28;20450;-70
2023/08/10 03:19:32;;;;;;;5.37;1.70;;;;;;;11.89;100.00;101447.31;5053776;28;20517;-70
2023/08/10 03:21:59;;;;;;;6.97;1.83;;;;;;;11.88;100.00;101449.22;5053022;28;20885;-70
2023/08/10 03:24:25;;;;;;;7.50;2.10;;;;;;;11.87;100.00;101439.47;5053533;28;20977;-70
2023/08/10 03:26:53;;;;;;;6.27;1.90;;;;;;;11.84;100.00;101440.84;5053353;28;20548;-70
2023/08/10 03:29:20;;;;;;;6.70;1.87;;;;;;;11.86;100.00;101440.53;5053612;28;20533;-70
2023/08/10 03:31:47;;;;;;;8.07;1.90;;;;;;;11.84;100.00;101438.13;5052970;28;20934;-70
2023/08/10 03:34:13;;;;;;;9.87;2.07;;;;;;;11.88;100.00;101448.41;5053180;28;20490;-70
2023/08/10 03:36:40;;;;;;;5.60;1.43;;;;;;;11.87;100.00;101447.59;5053887;28;20490;-69
2023/08/10 03:39:06;;;;;;;5.70;1.30;;;;;;;11.86;100.00;101446.81;5053179;28;20485;-68
2023/08/10 03:41:33;;;;;;;5.23;1.43;;;;;;;11.82;100.00;101456.63;5056255;28;20448;-70
2023/08/10 03:44:01;;;;;;;5.57;1.40;;;;;;;11.79;100.00;101451.72;5057507;28;20438;-70
2023/08/10 03:46:28;;;;;;;5.63;1.97;;;;;;;11.74;100.00;101453.69;5057177;28;20549;-70
2023/08/10 03:48:54;;;;;;;5.63;1.50;;;;;;;11.77;100.00;101450.38;5057119;28;20535;-70
2023/08/10 03:51:21;;;;;;;6.83;2.17;;;;;;;11.77;100.00;101451.19;5057618;28;20481;-70
2023/08/10 03:53:48;;;;;;;5.63;1.70;;;;;;;11.77;100.00;101464.75;5056641;28;20521;-70
2023/08/10 03:56:14;;;;;;;5.67;1.63;;;;;;;11.70;100.00;101464.31;5056955;28;20458;-72
2023/08/10 03:58:41;;;;;;;7.67;1.97;;;;;;;11.72;100.00;101472.16;5056917;28;20445;-71
2023/08/10 04:01:09;;;;;;;5.57;1.47;;;;;;;11.73;100.00;101474.59;5056896;28;20533;-71
2023/08/10 04:03:36;;;;;;;5.90;1.83;;;;;;;11.78;100.00;101468.31;5056892;28;20521;-70
2023/08/10 04:06:02;;;;;;;6.90;1.90;;;;;;;11.81;100.00;101463.09;5057265;28;20533;-70
2023/08/10 04:08:29;;;;;;;6.27;2.03;;;;;;;11.79;100.00;101467.22;5056714;28;20536;-70
2023/08/10 04:10:55;;;;;;;5.90;1.63;;;;;;;11.81;100.00;101468.53;5056295;28;20925;-70
2023/08/10 04:13:22;;;;;;;5.50;1.77;;;;;;;11.80;100.00;101482.38;5056701;28;20420;-70
2023/08/10 04:15:50;;;;;;;6.83;2.10;;;;;;;11.72;100.00;101477.56;5056498;28;20489;-70
2023/08/10 04:18:18;;;;;;;5.27;1.33;;;;;;;11.67;100.00;101467.59;5056546;28;20442;-70
2023/08/10 04:20:44;;;;;;;6.20;1.97;;;;;;;11.65;100.00;101480.66;5056492;28;20533;-70
2023/08/10 04:23:11;;;;;;;6.33;2.00;;;;;;;11.66;100.00;101479.53;5056546;28;20472;-70
2023/08/10 04:25:38;;;;;;;7.70;2.10;;;;;;;11.65;100.00;101480.66;5056271;28;20455;-69
2023/08/10 04:28:05;;;;;;;6.10;1.67;;;;;;;11.70;100.00;101474.34;5056392;28;20469;-69
2023/08/10 04:30:32;;;;;;;6.20;2.03;;;;;;;11.76;100.00;101475.91;5055975;28;20995;-69
2023/08/10 04:32:58;;;;;;;5.70;1.43;;;;;;;11.74;100.00;101484.34;5056282;28;20444;-69
2023/08/10 04:35:26;;;;;;;6.03;1.67;;;;;;;11.80;100.00;101483.19;5056101;28;20496;-69
2023/08/10 04:37:53;;;;;;;8.07;2.10;;;;;;;11.93;100.00;101470.88;5055880;28;20470;-69
2023/08/10 04:40:20;;;;;;;8.27;1.87;;;;;;;11.98;100.00;101476.25;5056354;28;20446;-69
2023/08/10 04:42:47;;;;;;;6.73;2.10;;;;;;;11.94;100.00;101482.53;5056148;28;20779;-69
2023/08/10 04:45:14;;;;;;;6.07;1.30;;;;;;;11.95;100.00;101476.00;5055719;28;20981;-69
2023/08/10 04:47:41;;;;;;;6.20;1.43;;;;;;;11.99;100.00;101482.47;5056017;28;20446;-70
2023/08/10 04:50:08;;;;;;;6.30;1.53;;;;;;;12.03;100.00;101483.53;5055948;28;20521;-70
2023/08/10 04:52:36;;;;;;;8.30;1.80;;;;;;;12.06;100.00;101488.41;5054835;28;20926;-69
2023/08/10 04:55:04;;;;;;;5.90;1.63;;;;;;;12.15;100.00;101492.09;5056088;28;21031;-69
2023/08/10 04:57:31;;;;;;;6.00;1.33;;;;;;;12.24;100.00;101492.25;5056138;28;20533;-69
2023/08/10 04:59:58;;;;;;;6.20;1.63;;;;;;;12.28;100.00;101499.53;5055810;28;20530;-69
2023/08/10 05:02:24;;;;;;;6.70;2.10;;;;;;;12.41;100.00;101495.31;5055748;28;20442;-69
2023/08/10 05:04:51;;;;;;;6.10;1.87;;;;;;;12.44;100.00;101502.91;5055973;28;20527;-69
2023/08/10 05:07:18;;;;;;;7.87;2.03;;;;;;;12.55;100.00;101496.22;5055655;28;20521;-69
2023/08/10 05:09:46;;;;;;;5.37;1.43;;;;;;;12.65;100.00;101505.34;5055562;28;20457;-69
2023/08/10 05:12:13;;;;;;;6.20;1.60;;;;;;;12.74;100.00;101503.56;5055470;28;20473;-69
2023/08/10 05:14:40;;;;;;;5.73;1.53;;;;;;;12.87;100.00;101514.53;5055395;28;20520;-69
2023/08/10 05:17:06;;;;;;;5.90;1.23;;;;;;;12.94;100.00;101516.91;5055448;28;20477;-69
2023/08/10 05:19:33;;;;;;;6.10;1.50;;;;;;;12.99;100.00;101519.53;5055612;28;20474;-69
2023/08/10 05:21:59;;;;;;;6.33;1.73;;;;;;;13.09;100.00;101522.09;5055580;28;20442;-69
2023/08/10 05:24:26;;;;;;;6.57;1.73;;;;;;;13.15;100.00;101520.16;5055243;28;20858;-70
2023/08/10 05:26:54;;;;;;;5.93;1.83;;;;;;;13.21;100.00;101526.31;5055227;28;20489;-69
2023/08/10 05:29:21;;;;;;;5.93;1.53;;;;;;;13.21;100.00;101529.84;5055284;28;20518;-69
2023/08/10 05:31:47;;;;;;;6.77;1.90;;;;;;;13.23;100.00;101533.09;5054943;28;20434;-69
2023/08/10 05:34:14;;;;;;;6.33;1.50;;;;;;;13.17;100.00;101526.09;5055318;28;20441;-69
2023/08/10 05:36:40;;;;;;;5.30;1.20;;;;;;;13.13;100.00;101527.78;5055349;28;20633;-69
2023/08/10 05:39:08;;;;;;;11.33;1.87;;;;;;;13.09;100.00;101530.25;5055050;28;20440;-69
2023/08/10 05:41:35;;;;;;;5.37;1.33;;;;;;;13.10;100.00;101533.78;5055023;28;20446;-68
2023/08/10 05:44:03;;;;;;;5.70;1.60;;;;;;;13.14;100.00;101532.09;5055023;28;20434;-69
2023/08/10 05:46:30;;;;;;;6.33;1.97;;;;;;;13.26;100.00;101532.50;5055115;28;20470;-69
2023/08/10 05:48:57;;;;;;;6.67;1.87;;;;;;;13.37;100.00;101536.69;5055368;28;20537;-71
2023/08/10 05:51:23;;;;;;;11.27;1.57;;;;;;;13.46;100.00;101534.09;5055031;28;20525;-70
2023/08/10 05:53:50;;;;;;;5.23;1.27;;;;;;;13.58;100.00;101539.88;5054720;28;20527;-70
2023/08/10 05:56:17;;;;;;;4.87;1.10;;;;;;;13.69;100.00;101535.09;5054269;28;21002;-69
2023/08/10 05:58:43;;;;;;;4.80;1.10;;;;;;;13.77;100.00;101533.59;5054662;28;20438;-69
2023/08/10 06:01:11;;;;;;;5.60;1.40;;;;;;;13.84;100.00;101537.53;5054624;28;20435;-69
2023/08/10 06:03:38;;;;;;;6.27;1.40;;;;;;;13.96;100.00;101539.78;5053958;28;20439;-69
2023/08/10 06:06:06;;;;;;;6.30;1.43;;;;;;;14.03;100.00;101534.75;5053853;28;20458;-69
2023/08/10 06:08:33;;;;;;;6.87;1.37;;;;;;;14.12;100.00;101540.28;5054683;28;20442;-68
2023/08/10 06:11:01;;;;;;;18.83;1.70;;;;;;;14.20;100.00;101545.03;5054250;28;20446;-68
2023/08/10 06:13:28;;;;;;;5.60;1.50;;;;;;;14.27;100.00;101539.22;5054711;28;20456;-69
2023/08/10 06:15:54;;;;;;;8.40;1.30;;;;;;;14.34;100.00;101539.59;5054530;28;20492;-68
2023/08/10 06:18:22;;;;;;;6.43;1.50;;;;;;;14.41;100.00;101542.75;5054940;28;20446;-68
2023/08/10 06:20:49;;;;;;;6.37;1.30;;;;;;;14.56;100.00;101550.63;5054787;28;20533;-68
2023/08/10 06:23:16;;;;;;;5.77;1.33;;;;;;;14.65;100.00;101553.44;5053860;28;20545;-68
2023/08/10 06:25:42;;;;;;;13.63;1.90;;;;;;;14.76;100.00;101556.78;5054070;28;20538;-68
2023/08/10 06:28:09;;;;;;;5.40;1.10;;;;;;;14.92;100.00;101557.25;5053844;28;20934;-69
2023/08/10 06:30:36;;;;;;;7.60;1.50;;;;;;;15.02;100.00;101557.03;5053776;28;20481;-69
2023/08/10 06:33:02;;;;;;;5.20;1.00;;;;;;;15.13;100.00;101566.59;5054054;28;20449;-68
2023/08/10 06:35:35;;;;;;;5.53;1.13;;;;;;;15.27;100.00;101564.66;5053815;28;20555;-68
2023/08/10 06:38:04;;;;;;;10.93;2.17;;;;;;;15.43;99.41;101569.75;5053671;28;20804;-68
2023/08/10 06:40:31;;;;;;;5.60;1.40;;;;;;;15.60;95.53;101570.69;5054266;28;20536;-68
2023/08/10 06:42:58;;;;;;;8.27;1.30;;;;;;;15.72;95.00;101572.09;5054256;28;20525;-68
2023/08/10 06:45:25;;;;;;;8.63;1.30;;;;;;;15.83;94.15;101579.69;5054129;28;20486;-68
2023/08/10 06:47:52;;;;;;;9.50;1.00;;;;;;;15.95;94.12;101578.34;5054087;28;20461;-69
2023/08/10 06:50:19;;;;;;;11.80;1.37;;;;;;;16.14;93.16;101578.91;5053697;28;20508;-69
2023/08/10 06:52:47;;;;;;;5.60;1.07;;;;;;;16.35;91.55;101579.19;5053385;28;20976;-69
2023/08/10 06:55:13;;;;;;;10.73;1.50;;;;;;;16.47;89.35;101581.28;5053518;28;20489;-68
2023/08/10 06:57:40;;;;;;;6.50;0.93;;;;;;;16.52;88.75;101581.97;5053293;28;20478;-68
2023/08/10 07:00:11;;;;;;;6.73;1.40;;;;;;;16.59;87.44;101578.75;5053787;28;20868;-68
2023/08/10 07:02:39;;;;;;;13.53;1.80;;;;;;;16.60;88.69;101577.63;5053290;28;20898;-68
2023/08/10 07:05:06;;;;;;;5.20;1.00;;;;;;;16.62;89.10;101580.88;5053517;28;20541;-68
2023/08/10 07:07:33;;;;;;;9.00;1.67;;;;;;;16.51;87.49;101582.28;5053899;28;20449;-68
2023/08/10 07:10:05;;;;;;;6.60;1.50;;;;;;;16.63;89.38;101585.22;5053503;28;20449;-70
2023/08/10 07:12:31;;;;;;;5.13;1.10;;;;;;;16.69;88.05;101586.69;5053127;28;20489;-72
2023/08/10 07:14:58;;;;;;;8.53;1.20;;;;;;;16.77;86.94;101596.88;5052967;28;20458;-70
2023/08/10 07:17:24;;;;;;;9.73;1.70;;;;;;;16.87;87.04;101593.06;5054107;28;20467;-71
2023/08/10 07:19:52;;;;;;;4.70;1.00;;;;;;;16.93;86.83;101594.50;5054030;28;20442;-71
2023/08/10 07:22:19;;;;;;;6.30;1.30;;;;;;;17.00;87.26;101591.28;5053708;28;20483;-71
2023/08/10 07:24:45;;;;;;;4.40;0.60;;;;;;;17.11;87.52;101593.41;5053390;28;20851;-70
2023/08/10 07:27:13;;;;;;;4.60;1.00;;;;;;;17.19;87.30;101591.81;5053018;28;20442;-74
2023/08/10 07:29:40;;;;;;;10.30;1.37;;;;;;;17.13;84.01;101591.16;5053180;28;20493;-70
2023/08/10 07:32:07;;;;;;;4.80;1.00;;;;;;;16.99;82.69;101592.41;5053194;28;20472;-71
2023/08/10 07:34:33;;;;;;;5.13;1.10;;;;;;;16.89;82.54;101588.06;5053087;28;20482;-72
2023/08/10 07:37:00;;;;;;;7.37;0.80;;;;;;;16.84;81.82;101591.75;5053151;28;20490;-70
2023/08/10 07:39:27;;;;;;;4.73;0.70;;;;;;;16.78;82.53;101597.72;5053231;28;20926;-69
2023/08/10 07:41:53;;;;;;;4.27;0.63;;;;;;;16.85;82.76;101595.28;5053145;28;20444;-71
2023/08/10 07:44:21;;;;;;;4.77;0.77;;;;;;;16.86;82.62;101599.63;5053248;28;20446;-72
2023/08/10 07:46:48;;;;;;;4.60;0.73;;;;;;;16.88;81.15;101600.13;5052775;28;20978;-72
2023/08/10 07:49:15;;;;;;;4.70;0.70;;;;;;;17.01;79.02;101607.41;5053122;28;20438;-71
2023/08/10 07:51:46;;;;;;;5.17;0.90;;;;;;;17.04;78.17;101605.94;5053112;28;20442;-68
2023/08/10 07:54:13;;;;;;;4.90;0.70;;;;;;;17.20;80.65;101609.84;5053090;28;20898;-71
2023/08/10 07:56:39;;;;;;;4.60;0.63;;;;;;;17.32;80.46;101604.53;5053144;28;20563;-69
2023/08/10 07:59:06;;;;;;;6.03;1.00;;;;;;;17.38;79.03;101610.66;5053004;28;20473;-71
2023/08/10 08:01:34;;;;;;;4.90;1.00;;;;;;;17.42;78.78;101608.88;5053016;28;20448;-74
2023/08/10 08:04:01;;;;;;;4.50;0.90;;;;;;;17.50;78.37;101618.25;5052922;28;20529;-73
2023/08/10 08:06:27;;;;;;;4.60;0.80;;;;;;;17.60;76.99;101621.44;5052491;28;20571;-71
2023/08/10 08:08:54;;;;;;;5.17;0.87;;;;;;;17.66;77.14;101616.59;5052716;28;20434;-70
2023/08/10 08:11:20;;;;;;;6.20;1.03;;;;;;;17.69;77.33;101615.97;5069425;22;20518;-70
2023/08/10 08:13:47;;;;;;;7.80;1.10;;;;;;;17.73;74.03;101605.16;5053375;28;20434;-70
2023/08/10 08:16:13;;;;;;;7.13;0.90;;;;;;;17.82;64.70;101614.22;5052727;28;20831;-69
2023/08/10 08:18:47;;;;;;;5.83;0.90;;;;;;;17.94;63.76;101622.59;5052896;28;20438;-70
2023/08/10 08:21:15;;;;;;;4.57;0.80;;;;;;;17.97;63.70;101613.69;5052784;28;20462;-70
2023/08/10 08:23:41;;;;;;;5.17;0.90;;;;;;;18.21;65.57;101610.41;5053108;28;20446;-69
2023/08/10 08:26:08;;;;;;;5.47;0.83;;;;;;;18.36;67.34;101612.63;5053290;28;20460;-69
2023/08/10 08:28:35;;;;;;;6.93;1.23;;;;;;;18.38;63.63;101615.06;5055695;28;20449;-67
2023/08/10 08:31:02;;;;;;;8.30;1.00;;;;;;;18.44;63.50;101621.16;5056871;28;20434;-67
2023/08/10 08:33:29;;;;;;;8.00;0.93;;;;;;;18.46;62.28;101613.38;5056676;28;20492;-67
2023/08/10 08:35:57;;;;;;;10.70;0.90;;;;;;;18.52;62.95;101620.31;5055935;28;20485;-67
2023/08/10 08:38:25;;;;;;;4.80;1.00;;;;;;;18.50;62.50;101609.66;5056539;28;20516;-67
2023/08/10 08:40:55;;;;;;;9.50;1.13;;;;;;;18.50;62.86;101612.41;5057245;28;20862;-68
2023/08/10 08:43:22;;;;;;;4.70;0.70;;;;;;;18.47;64.16;101618.56;5056244;28;20438;-67
2023/08/10 08:45:48;;;;;;;4.30;0.70;;;;;;;18.61;64.97;101612.84;5056550;28;20684;-68
2023/08/10 08:48:17;;;;;;;4.20;0.60;;;;;;;18.72;65.99;101614.09;5055916;28;20492;-70
2023/08/10 08:50:45;;;;;;;6.00;0.73;;;;;;;18.62;67.34;101603.47;5056276;28;20485;-68
2023/08/10 08:53:14;;;;;;;4.30;0.73;;;;;;;18.58;66.04;101617.03;5055996;28;20449;-70
2023/08/10 08:55:41;;;;;;;5.37;0.97;;;;;;;18.61;68.24;101615.59;5055346;28;20493;-67
2023/08/10 08:58:08;;;;;;;4.30;0.60;;;;;;;18.65;62.85;101619.28;5056241;28;20862;-67
2023/08/10 09:00:35;;;;;;;4.60;0.77;;;;;;;18.92;63.25;101617.25;5056295;28;20446;-68
2023/08/10 09:03:02;;;;;;;5.90;1.10;;;;;;;19.06;62.60;101610.34;5056192;28;20473;-68
2023/08/10 09:05:29;;;;;;;5.37;0.70;;;;;;;19.21;60.75;101610.88;5055618;28;20510;-68
2023/08/10 09:07:56;;;;;;;4.50;0.67;;;;;;;19.22;59.83;101621.56;5055720;28;20496;-67
2023/08/10 09:10:24;;;;;;;4.50;0.60;;;;;;;19.21;59.69;101621.88;5056047;28;20818;-68
2023/08/10 09:12:51;;;;;;;6.00;0.67;;;;;;;19.11;58.74;101626.63;5055369;28;20443;-67
2023/08/10 09:15:19;;;;;;;4.20;0.47;;;;;;;19.07;58.36;101622.94;5055738;28;20545;-68
2023/08/10 09:17:47;;;;;;;4.60;0.63;;;;;;;18.98;59.82;101615.91;5055417;28;20482;-68
2023/08/10 09:20:19;;;;;;;6.73;0.87;;;;;;;18.94;61.15;101617.69;5055786;28;20462;-68
2023/08/10 09:22:47;;;;;;;4.83;0.70;;;;;;;18.80;61.98;101616.00;5055226;28;20903;-68
2023/08/10 09:25:14;;;;;;;6.70;1.00;;;;;;;18.52;63.44;101610.16;5055274;28;20545;-67
2023/08/10 09:27:42;;;;;;;5.60;1.10;;;;;;;18.46;64.80;101611.47;5055322;28;20435;-67
2023/08/10 09:30:09;;;;;;;5.00;1.10;;;;;;;18.53;61.40;101616.44;5055339;28;20517;-68
2023/08/10 09:32:36;;;;;;;5.00;0.80;;;;;;;18.54;62.96;101607.84;5055006;28;20521;-67
2023/08/10 09:35:03;;;;;;;4.80;0.80;;;;;;;18.67;62.80;101615.06;5055328;28;20463;-68
2023/08/10 09:37:30;;;;;;;4.37;0.63;;;;;;;18.93;60.99;101613.34;5054894;28;20512;-68
2023/08/10 09:39:59;;;;;;;6.30;0.73;;;;;;;19.11;61.60;101614.84;5054944;28;20470;-68
2023/08/10 09:42:25;;;;;;;5.50;0.97;;;;;;;19.34;62.50;101610.63;5055014;28;20492;-68
2023/08/10 09:44:54;;;;;;;7.90;1.53;;;;;;;19.50;59.51;101610.03;5055276;28;20553;-68
2023/08/10 09:47:21;;;;;;;5.13;0.80;;;;;;;19.71;58.15;101610.84;5054677;28;20439;-68
2023/08/10 09:49:55;;;;;;;6.87;1.20;;;;;;;19.93;57.86;101619.84;5054886;28;20538;-68
2023/08/10 09:52:23;;;;;;;4.83;1.00;;;;;;;19.90;58.75;101624.06;5054976;28;20433;-68
2023/08/10 09:54:51;;;;;;;4.63;0.77;;;;;;;19.94;58.69;101618.72;5054382;28;21000;-68
2023/08/10 09:57:19;;;;;;;4.67;0.83;;;;;;;19.83;58.68;101632.06;5054611;28;20486;-67
2023/08/10 09:59:46;;;;;;;4.80;0.87;;;;;;;19.62;58.54;101632.09;5054322;28;20449;-68
2023/08/10 10:02:15;;;;;;;8.03;1.10;;;;;;;19.61;60.96;101628.56;5054749;28;20438;-68
2023/08/10 10:04:43;;;;;;;5.57;0.93;;;;;;;19.64;58.00;101622.38;5054218;28;20439;-68
2023/08/10 10:07:11;;;;;;;5.07;0.97;;;;;;;19.54;59.74;101624.72;5054548;28;20517;-68
2023/08/10 10:09:39;;;;;;;5.07;0.93;;;;;;;19.59;58.53;101622.56;5054195;28;20560;-68
2023/08/10 10:12:08;;;;;;;4.50;0.90;;;;;;;19.55;60.43;101626.31;5054062;28;20799;-68
2023/08/10 10:14:38;;;;;;;4.30;0.60;;;;;;;19.50;59.76;101626.53;5053989;28;20481;-68
2023/08/10 10:17:06;;;;;;;5.63;1.13;;;;;;;19.60;59.37;101632.44;5054262;28;20484;-68
2023/08/10 10:19:34;;;;;;;4.90;1.20;;;;;;;19.35;59.10;101619.69;5054261;28;20504;-68
2023/08/10 10:22:01;;;;;;;4.60;0.80;;;;;;;19.53;59.85;101620.34;5054298;28;20625;-68
2023/08/10 10:24:31;;;;;;;4.33;0.70;;;;;;;19.73;60.46;101616.78;5054433;28;20434;-68
2023/08/10 10:27:05;;;;;;;4.50;0.93;;;;;;;19.98;57.48;101622.38;5053857;28;20482;-71
2023/08/10 10:29:40;;;;;;;4.17;0.67;;;;;;;20.06;57.38;101613.25;5054283;28;20445;-71
2023/08/10 10:32:12;;;;;;;4.60;0.90;;;;;;;20.06;58.56;101616.81;5053716;28;20445;-67
2023/08/10 10:34:41;;;;;;;4.43;0.70;;;;;;;19.96;57.82;101616.41;5053989;28;20475;-67
2023/08/10 10:37:10;;;;;;;4.30;0.70;;;;;;;20.03;57.58;101611.97;5053964;28;20518;-68
2023/08/10 10:39:37;;;;;;;5.07;0.97;;;;;;;20.14;57.36;101609.56;5053636;28;20438;-68
2023/08/10 10:42:04;;;;;;;4.93;1.10;;;;;;;20.05;57.04;101614.38;5053521;28;20485;-68
2023/08/10 10:44:59;;;;;;;6.30;1.20;;;;;;;19.86;57.70;101609.41;5053590;28;20848;-68
2023/08/10 10:47:37;;;;;;;4.73;0.77;;;;;;;19.94;57.92;101604.97;5053328;28;20934;-67
2023/08/10 10:50:19;;;;;;;5.80;1.10;;;;;;;19.93;57.28;101614.34;5053487;28;20525;-68
2023/08/10 10:52:53;;;;;;;4.60;0.97;;;;;;;19.94;58.78;101602.22;5054073;28;20469;-68
2023/08/10 10:55:20;;;;;;;4.37;0.60;;;;;;;19.87;57.27;101609.03;5053685;28;20494;-68
2023/08/10 10:57:48;;;;;;;6.30;1.00;;;;;;;19.84;57.49;101601.50;5054139;28;20482;-68
2023/08/10 11:00:16;;;;;;;5.07;0.67;;;;;;;19.87;58.19;101598.03;5053330;28;20449;-68
2023/08/10 11:02:43;;;;;;;11.00;0.97;;;;;;;20.12;55.51;101595.38;5053693;28;20442;-68
2023/08/10 11:05:12;;;;;;;5.00;0.97;;;;;;;20.38;56.98;101597.81;5053818;28;20454;-68
2023/08/10 11:07:42;;;;;;;8.20;0.90;;;;;;;20.49;54.32;101589.94;5053202;28;20484;-68
2023/08/10 11:10:10;;;;;;;5.07;0.90;;;;;;;20.74;52.75;101594.28;5053642;28;20470;-68
2023/08/10 11:12:38;;;;;;;5.17;0.97;;;;;;;20.97;53.73;101600.09;5053486;28;20450;-68
2023/08/10 11:15:07;;;;;;;7.30;1.27;;;;;;;21.18;52.72;101594.44;5052983;28;20854;-68
2023/08/10 11:17:34;;;;;;;5.73;0.93;;;;;;;21.20;51.56;101594.09;5053594;28;20478;-68
2023/08/10 11:20:01;;;;;;;6.10;1.30;;;;;;;21.14;52.73;101593.53;5053777;28;20446;-68
2023/08/10 11:22:28;;;;;;;4.83;0.70;;;;;;;21.26;55.22;101585.25;5053734;28;20446;-68
2023/08/10 11:24:56;;;;;;;4.33;0.73;;;;;;;22.06;53.52;101589.03;5053073;28;20468;-68